Time;durP1;ratioP1;P1;durP2;ratioP2;P2;SDS_P1;SDS_P2;PMS_P1;PMS_P2;Temp;Humidity;BMP_temperature;BMP_pressure;BME280_temperature;BME280_humidity;BME280_pressure;Samples;Min_cycle;Max_cycle;Signal;HPM_P1;HPM_P2
2022/07/31 00:00:35;;;;;;;6.66;3.72;;;;;;;22.42;46.11;100758.43;448190;117;922634;-82
2022/07/31 00:01:38;;;;;;;6.78;3.77;;;;;;;22.42;46.19;100754.81;449518;117;922575;-80
2022/07/31 00:02:41;;;;;;;6.57;3.41;;;;;;;22.42;46.05;100757.59;449512;117;923054;-80
2022/07/31 00:03:44;;;;;;;6.86;4.38;;;;;;;22.41;45.97;100758.71;455741;116;922628;-80
2022/07/31 00:04:48;;;;;;;6.40;3.23;;;;;;;22.39;45.83;100758.98;457259;116;922583;-80
2022/07/31 00:05:51;;;;;;;6.14;3.56;;;;;;;22.38;45.88;100760.10;457319;116;922559;-80
2022/07/31 00:06:54;;;;;;;7.91;3.84;;;;;;;22.38;45.98;100764.86;457240;115;922593;-81
2022/07/31 00:07:58;;;;;;;7.34;3.12;;;;;;;22.36;46.06;100762.36;457326;116;923104;-81
2022/07/31 00:09:01;;;;;;;5.66;3.71;;;;;;;22.36;46.15;100761.52;457232;116;923085;-80
2022/07/31 00:10:05;;;;;;;7.43;3.49;;;;;;;22.35;46.10;100765.41;457300;115;922719;-80
2022/07/31 00:11:10;;;;;;;9.11;3.37;;;;;;;22.32;46.02;100766.84;457231;115;923426;-80
2022/07/31 00:12:13;;;;;;;5.70;3.41;;;;;;;22.30;46.00;100759.90;457154;116;922678;-80
2022/07/31 00:13:16;;;;;;;9.24;3.66;;;;;;;22.28;46.09;100767.67;450082;115;922935;-81
2022/07/31 00:14:19;;;;;;;6.92;3.53;;;;;;;22.26;46.09;100770.77;449483;118;923152;-82
2022/07/31 00:15:22;;;;;;;5.62;2.94;;;;;;;22.23;46.11;100774.10;455894;116;922613;-81
2022/07/31 00:16:27;;;;;;;5.63;3.57;;;;;;;22.22;46.22;100768.86;456938;116;922724;-81
2022/07/31 00:17:30;;;;;;;7.12;3.33;;;;;;;22.19;46.28;100764.70;457181;116;922942;-81
2022/07/31 00:18:36;;;;;;;8.13;3.36;;;;;;;22.18;46.47;100770.53;457158;116;922441;-81
2022/07/31 00:19:40;;;;;;;6.72;3.37;;;;;;;22.16;46.51;100770.84;456939;116;922540;-81
2022/07/31 00:20:44;;;;;;;4.48;3.13;;;;;;;22.14;46.59;100761.12;457087;116;922695;-81
2022/07/31 00:21:47;;;;;;;5.12;3.54;;;;;;;22.12;46.67;100772.50;457186;116;923114;-81
2022/07/31 00:22:50;;;;;;;6.26;3.46;;;;;;;22.10;46.74;100760.88;457222;116;922610;-81
2022/07/31 00:23:53;;;;;;;5.64;3.83;;;;;;;22.08;46.74;100776.98;456118;113;923069;-82
2022/07/31 00:24:56;;;;;;;6.06;3.25;;;;;;;22.07;46.84;100774.48;457334;115;922954;-81
2022/07/31 00:26:00;;;;;;;5.34;3.47;;;;;;;22.05;46.84;100772.81;457393;116;922810;-81
2022/07/31 00:27:03;;;;;;;4.40;3.60;;;;;;;22.03;46.86;100772.29;457364;115;922938;-81
2022/07/31 00:28:06;;;;;;;4.21;3.08;;;;;;;22.00;46.92;100770.06;457281;115;922490;-82
2022/07/31 00:29:09;;;;;;;7.75;3.53;;;;;;;22.00;46.99;100780.34;457365;116;922899;-81
2022/07/31 00:30:16;;;;;;;4.43;3.48;;;;;;;21.99;47.11;100773.98;450973;115;922608;-80
2022/07/31 00:31:19;;;;;;;5.74;3.16;;;;;;;21.97;47.18;100776.20;449458;118;922566;-81
2022/07/31 00:32:23;;;;;;;7.16;3.24;;;;;;;21.97;47.30;100776.20;449334;118;923128;-81
2022/07/31 00:33:26;;;;;;;5.53;3.50;;;;;;;21.97;47.36;100775.38;449340;118;930352;-82
2022/07/31 00:34:29;;;;;;;6.53;3.37;;;;;;;21.96;47.35;100785.64;449444;118;922662;-82
2022/07/31 00:35:32;;;;;;;6.92;2.66;;;;;;;21.94;47.38;100776.77;449489;118;922566;-80
2022/07/31 00:36:36;;;;;;;4.69;3.26;;;;;;;21.91;47.42;100780.09;449413;118;922711;-81
2022/07/31 00:37:40;;;;;;;5.92;3.26;;;;;;;21.89;47.50;100779.53;449389;118;930571;-82
2022/07/31 00:38:44;;;;;;;5.38;3.48;;;;;;;21.87;47.57;100778.17;449332;118;922908;-80
2022/07/31 00:39:48;;;;;;;5.31;3.12;;;;;;;21.87;47.65;100776.23;449486;118;922593;-80
2022/07/31 00:40:51;;;;;;;5.48;2.78;;;;;;;21.86;47.76;100780.11;449388;118;923010;-81
2022/07/31 00:41:55;;;;;;;5.41;3.33;;;;;;;21.85;47.76;100778.45;449358;118;922547;-80
2022/07/31 00:42:58;;;;;;;3.87;2.76;;;;;;;21.85;47.76;100783.17;449418;118;922660;-81
2022/07/31 00:44:01;;;;;;;4.11;2.79;;;;;;;21.84;47.82;100782.33;449428;118;923040;-80
2022/07/31 00:45:07;;;;;;;3.47;2.23;;;;;;;21.84;47.78;100787.89;449323;118;922504;-81
2022/07/31 00:46:11;;;;;;;4.87;2.26;;;;;;;21.84;47.84;100775.95;449307;118;922647;-81
2022/07/31 00:47:17;;;;;;;5.64;2.53;;;;;;;21.84;47.83;100773.17;449308;118;922970;-81
2022/07/31 00:48:23;;;;;;;4.97;2.58;;;;;;;21.84;47.85;100773.17;448873;118;922545;-80
2022/07/31 00:49:27;;;;;;;5.87;2.34;;;;;;;21.83;47.79;100780.67;449403;118;922959;-80
2022/07/31 00:50:32;;;;;;;7.02;2.71;;;;;;;21.83;47.86;100777.09;449043;118;923015;-80
2022/07/31 00:51:36;;;;;;;4.44;2.06;;;;;;;21.83;47.84;100779.86;449515;118;923037;-82
2022/07/31 00:52:40;;;;;;;3.40;2.42;;;;;;;21.80;47.80;100772.92;449438;118;923119;-80
2022/07/31 00:53:43;;;;;;;4.62;2.31;;;;;;;21.79;47.80;100782.36;449525;118;922461;-81
2022/07/31 00:54:46;;;;;;;2.96;1.82;;;;;;;21.79;47.77;100774.03;449541;118;922600;-81
2022/07/31 00:55:49;;;;;;;3.26;2.22;;;;;;;21.79;47.70;100779.58;449574;118;922575;-81
2022/07/31 00:56:55;;;;;;;2.54;1.81;;;;;;;21.79;47.75;100774.03;449321;118;922552;-82
2022/07/31 00:57:58;;;;;;;4.15;1.91;;;;;;;21.77;47.78;100775.45;449570;118;922571;-81
2022/07/31 00:59:01;;;;;;;3.03;1.61;;;;;;;21.75;47.80;100775.72;449546;118;922527;-80
2022/07/31 01:00:05;;;;;;;4.11;1.87;;;;;;;21.74;47.92;100771.28;449489;118;922613;-81
2022/07/31 01:01:08;;;;;;;3.24;1.61;;;;;;;21.74;47.93;100776.00;449396;118;922578;-81
2022/07/31 01:02:12;;;;;;;3.93;1.59;;;;;;;21.74;47.90;100771.28;449555;118;923241;-81
2022/07/31 01:03:15;;;;;;;2.73;1.59;;;;;;;21.75;47.93;100772.12;449557;116;922661;-81
2022/07/31 01:04:18;;;;;;;4.06;1.65;;;;;;;21.72;47.83;100772.70;449537;117;922533;-79
2022/07/31 01:05:22;;;;;;;7.46;2.12;;;;;;;21.70;47.97;100772.97;449495;117;922464;-80
2022/07/31 01:06:26;;;;;;;3.63;2.00;;;;;;;21.70;47.97;100772.97;449530;117;922555;-81
2022/07/31 01:07:29;;;;;;;3.84;2.03;;;;;;;21.70;47.84;100774.91;449559;118;922619;-81
2022/07/31 01:08:32;;;;;;;2.06;1.87;;;;;;;21.70;47.86;100770.20;449589;118;922886;-81
2022/07/31 01:09:36;;;;;;;3.43;1.56;;;;;;;21.71;47.98;100773.80;449593;118;922722;-81
2022/07/31 01:10:57;;;;;;;3.72;1.69;;;;;;;21.71;48.00;100768.25;449577;118;923182;-80
2022/07/31 01:12:15;;;;;;;2.72;2.08;;;;;;;21.72;47.97;100772.70;449376;118;923017;-81
2022/07/31 01:13:28;;;;;;;4.53;1.86;;;;;;;21.72;48.02;100772.70;449378;118;923015;-81
2022/07/31 01:14:42;;;;;;;3.26;1.72;;;;;;;21.71;48.05;100769.09;448277;116;922662;-81
2022/07/31 01:15:46;;;;;;;3.26;1.95;;;;;;;21.70;48.18;100772.97;455816;116;923195;-81
2022/07/31 01:16:54;;;;;;;3.68;2.61;;;;;;;21.70;48.21;100769.36;456070;116;922940;-80
2022/07/31 01:17:58;;;;;;;3.96;2.29;;;;;;;21.69;48.02;100774.08;454051;116;923078;-80
2022/07/31 01:19:05;;;;;;;3.95;2.04;;;;;;;21.68;48.04;100775.19;453568;117;922933;-81
2022/07/31 01:20:10;;;;;;;3.18;2.22;;;;;;;21.68;48.17;100772.41;453387;117;930329;-80
2022/07/31 01:21:20;;;;;;;5.51;2.53;;;;;;;21.68;48.33;100766.03;453472;117;922800;-81
2022/07/31 01:22:39;;;;;;;2.91;2.02;;;;;;;21.68;48.30;100768.80;453507;117;923064;-81
2022/07/31 01:23:52;;;;;;;3.56;2.02;;;;;;;21.67;48.38;100773.52;453551;117;922633;-81
2022/07/31 01:25:17;;;;;;;4.14;2.41;;;;;;;21.65;48.41;100761.89;452746;117;922687;-80
2022/07/31 01:26:30;;;;;;;;;;;;;;;21.64;48.50;100769.39;456498;117;922142;-79
2022/07/31 01:28:07;;;;;;;4.77;2.77;;;;;;;21.64;48.60;100776.88;453226;117;922671;-80
2022/07/31 01:29:25;;;;;;;4.26;2.26;;;;;;;21.61;48.64;100774.69;453492;117;922585;-80
2022/07/31 01:30:36;;;;;;;3.39;1.95;;;;;;;21.57;48.63;100768.85;449391;116;922616;-80
2022/07/31 01:31:46;;;;;;;5.53;2.33;;;;;;;21.54;48.64;100769.43;455423;116;922592;-80
2022/07/31 01:32:52;;;;;;;5.23;2.02;;;;;;;21.52;48.64;100766.09;455706;116;922634;-80
2022/07/31 01:34:04;;;;;;;5.04;2.32;;;;;;;21.52;48.71;100768.87;448920;117;922902;-80
2022/07/31 01:35:27;;;;;;;3.67;2.67;;;;;;;21.52;48.78;100760.55;452140;117;923135;-81
2022/07/31 01:36:33;;;;;;;4.25;2.08;;;;;;;21.53;48.81;100764.98;452296;117;922835;-81
2022/07/31 01:37:46;;;;;;;3.66;2.12;;;;;;;21.53;48.87;100761.38;452281;117;922553;-81
2022/07/31 01:38:52;;;;;;;5.62;2.18;;;;;;;21.54;48.91;100765.83;443985;119;922618;-81
2022/07/31 01:40:17;;;;;;;5.31;2.26;;;;;;;21.54;48.86;100761.11;445111;117;923166;-80
2022/07/31 01:41:27;;;;;;;2.85;1.73;;;;;;;21.54;48.70;100763.05;451856;117;923035;-81
2022/07/31 01:42:32;;;;;;;6.31;2.06;;;;;;;21.52;48.64;100763.32;444477;119;923261;-80
2022/07/31 01:43:41;;;;;;;3.93;2.23;;;;;;;21.51;48.61;100752.50;445175;117;923262;-81
2022/07/31 01:44:48;;;;;;;7.17;2.31;;;;;;;21.50;48.63;100761.96;444548;119;922758;-81
2022/07/31 01:45:56;;;;;;;4.38;1.99;;;;;;;21.49;48.58;100754.74;445202;117;922717;-81
2022/07/31 01:47:02;;;;;;;3.61;2.09;;;;;;;21.48;48.56;100756.69;452301;117;923040;-80
2022/07/31 01:48:09;;;;;;;3.30;2.25;;;;;;;21.46;48.57;100758.06;452316;117;922561;-81
2022/07/31 01:49:15;;;;;;;3.56;1.99;;;;;;;21.43;48.58;100753.09;452324;117;922572;-80
2022/07/31 01:50:22;;;;;;;3.53;1.77;;;;;;;21.42;48.63;100759.75;444535;119;922603;-81
2022/07/31 01:51:29;;;;;;;4.02;2.10;;;;;;;21.40;48.71;100760.02;445408;117;923272;-81
2022/07/31 01:52:34;;;;;;;5.37;2.43;;;;;;;21.40;48.81;100748.09;444409;119;923251;-80
2022/07/31 01:53:39;;;;;;;4.10;2.43;;;;;;;21.40;48.79;100768.34;445039;117;922544;-81
2022/07/31 01:54:44;;;;;;;4.37;2.35;;;;;;;21.41;48.90;100758.09;452250;117;922855;-81
2022/07/31 01:55:49;;;;;;;3.83;2.18;;;;;;;21.42;48.94;100754.20;452330;117;922593;-80
2022/07/31 01:56:58;;;;;;;3.41;1.94;;;;;;;21.42;48.97;100757.81;449843;117;922561;-80
2022/07/31 01:58:02;;;;;;;2.50;1.82;;;;;;;21.42;48.83;100757.81;452324;117;922588;-82
2022/07/31 01:59:09;;;;;;;2.71;1.91;;;;;;;21.41;48.82;100755.31;452306;117;922593;-80
2022/07/31 02:00:20;;;;;;;2.34;2.07;;;;;;;21.40;48.80;100756.42;447127;118;922621;-80
2022/07/31 02:01:28;;;;;;;2.33;1.76;;;;;;;21.38;48.79;100758.66;445147;118;923087;-81
2022/07/31 02:02:33;;;;;;;3.11;2.34;;;;;;;21.35;48.84;100760.05;447712;118;922602;-80
2022/07/31 02:03:39;;;;;;;3.72;1.97;;;;;;;21.34;48.91;100760.31;447168;118;923130;-81
2022/07/31 02:04:45;;;;;;;5.11;2.06;;;;;;;21.33;49.01;100762.29;447354;118;922714;-80
2022/07/31 02:05:50;;;;;;;3.25;2.23;;;;;;;21.34;49.05;100755.60;455236;116;923233;-80
2022/07/31 02:06:55;;;;;;;3.61;2.07;;;;;;;21.33;49.07;100761.45;455512;116;922606;-80
2022/07/31 02:07:59;;;;;;;6.54;1.83;;;;;;;21.32;49.08;100765.34;455418;116;922579;-80
2022/07/31 02:09:03;;;;;;;3.80;1.85;;;;;;;21.32;49.08;100762.56;455423;116;930606;-80
2022/07/31 02:10:10;;;;;;;2.69;1.65;;;;;;;21.32;49.10;100762.56;447169;118;922804;-79
2022/07/31 02:11:20;;;;;;;4.80;1.90;;;;;;;21.41;49.10;100756.14;477068;110;946830;-79
2022/07/31 02:12:25;;;;;;;3.38;1.70;;;;;;;21.30;49.08;100756.45;465602;114;922667;-80
2022/07/31 02:13:31;;;;;;;2.31;1.95;;;;;;;21.28;49.06;100767.02;464762;113;922623;-79
2022/07/31 02:14:35;;;;;;;4.05;2.04;;;;;;;21.26;49.12;100760.91;462862;114;923003;-78
2022/07/31 02:15:41;;;;;;;6.33;2.28;;;;;;;21.23;49.16;100763.13;457173;116;922527;-81
2022/07/31 02:16:46;;;;;;;3.24;2.19;;;;;;;21.23;49.14;100767.84;457285;116;922589;-81
2022/07/31 02:17:53;;;;;;;4.86;2.00;;;;;;;21.20;49.18;100766.47;456859;116;923422;-80
2022/07/31 02:19:02;;;;;;;2.58;1.71;;;;;;;21.19;49.23;100767.58;457250;116;922650;-82
2022/07/31 02:20:11;;;;;;;4.71;2.01;;;;;;;21.17;49.25;100767.02;457222;116;922582;-82
2022/07/31 02:21:14;;;;;;;4.31;2.07;;;;;;;21.17;49.29;100771.76;457170;116;923032;-81
2022/07/31 02:22:19;;;;;;;2.89;2.16;;;;;;;21.15;49.39;100763.71;457286;116;922987;-81
2022/07/31 02:23:24;;;;;;;2.71;1.44;;;;;;;21.14;49.34;100773.14;457231;116;922597;-82
2022/07/31 02:24:28;;;;;;;3.48;2.20;;;;;;;21.12;49.34;100767.00;457411;116;922915;-83
2022/07/31 02:25:34;;;;;;;5.19;2.12;;;;;;;21.12;49.40;100771.70;457355;116;922759;-82
2022/07/31 02:26:39;;;;;;;3.61;2.02;;;;;;;21.10;49.45;100772.02;457229;116;923280;-81
2022/07/31 02:27:43;;;;;;;3.28;1.96;;;;;;;21.10;49.42;100771.17;457225;116;922502;-80
2022/07/31 02:28:49;;;;;;;3.26;1.80;;;;;;;21.09;49.49;100775.89;456685;116;922557;-81
2022/07/31 02:29:56;;;;;;;5.91;2.41;;;;;;;21.09;49.46;100775.05;455761;116;922573;-81
2022/07/31 02:31:00;;;;;;;7.84;2.21;;;;;;;21.08;49.59;100773.39;456873;116;930541;-82
2022/07/31 02:32:06;;;;;;;3.36;2.16;;;;;;;21.08;49.53;100770.61;457368;116;922813;-82
2022/07/31 02:33:13;;;;;;;7.31;2.61;;;;;;;21.07;49.62;100766.17;457374;116;922850;-83
2022/07/31 02:34:18;;;;;;;4.27;2.34;;;;;;;21.06;49.67;100764.53;463530;113;922609;-81
2022/07/31 02:35:24;;;;;;;3.48;2.26;;;;;;;21.05;49.70;100766.48;466523;113;922612;-81
2022/07/31 02:36:32;;;;;;;3.23;2.17;;;;;;;21.05;49.74;100774.80;465949;113;922964;-82
2022/07/31 02:37:37;;;;;;;3.69;2.92;;;;;;;21.05;49.83;100769.25;466493;113;923105;-82
2022/07/31 02:38:43;;;;;;;3.77;2.24;;;;;;;21.07;49.89;100777.27;466482;113;922578;-80
2022/07/31 02:39:46;;;;;;;4.33;2.93;;;;;;;21.07;49.91;100772.55;466438;113;922640;-82
2022/07/31 02:40:52;;;;;;;3.38;2.54;;;;;;;21.07;49.98;100767.01;466534;113;923267;-81
2022/07/31 02:41:58;;;;;;;4.11;2.47;;;;;;;21.08;49.92;100778.93;466408;113;930550;-80
2022/07/31 02:43:02;;;;;;;5.46;2.60;;;;;;;21.08;49.93;100767.84;466469;113;922585;-82
2022/07/31 02:44:10;;;;;;;4.22;2.81;;;;;;;21.08;49.93;100768.67;466159;113;922847;-81
2022/07/31 02:45:14;;;;;;;4.49;2.56;;;;;;;21.09;50.06;100767.56;466367;113;922589;-80
2022/07/31 02:46:19;;;;;;;4.95;2.47;;;;;;;21.10;50.06;100773.95;466362;113;922609;-81
2022/07/31 02:47:23;;;;;;;6.39;3.31;;;;;;;21.10;50.08;100772.02;466508;113;922528;-81
2022/07/31 02:48:27;;;;;;;4.56;2.78;;;;;;;21.10;50.06;100766.47;465749;113;930528;-81
2022/07/31 02:49:32;;;;;;;5.23;3.29;;;;;;;21.09;50.08;100770.34;457251;116;923128;-82
2022/07/31 02:50:52;;;;;;;6.07;3.21;;;;;;;21.10;50.16;100771.17;457524;113;923347;-78
2022/07/31 02:51:56;;;;;;;5.85;3.09;;;;;;;21.11;50.33;100768.13;457203;116;922867;-81
2022/07/31 02:52:59;;;;;;;5.49;3.92;;;;;;;21.11;50.28;100772.84;457417;115;922507;-81
2022/07/31 02:54:03;;;;;;;6.70;3.96;;;;;;;21.10;50.22;100772.02;457484;115;922991;-81
2022/07/31 02:55:07;;;;;;;6.52;3.38;;;;;;;21.08;50.22;100763.13;457359;114;922549;-81
2022/07/31 02:56:12;;;;;;;5.97;3.92;;;;;;;21.09;50.24;100772.28;457299;115;922649;-81
2022/07/31 02:57:16;;;;;;;8.62;3.53;;;;;;;21.08;50.24;100776.16;457334;115;922482;-81
2022/07/31 02:58:19;;;;;;;5.08;4.41;;;;;;;21.08;50.26;100767.84;457527;116;922558;-80
2022/07/31 02:59:22;;;;;;;5.06;3.81;;;;;;;21.10;50.34;100776.72;458259;115;922515;-81
2022/07/31 03:00:33;;;;;;;;;;;;;;;21.10;50.49;100772.02;465182;114;923038;-81
2022/07/31 03:01:36;;;;;;;8.29;4.33;;;;;;;21.11;50.50;100773.67;459935;115;922707;-81
2022/07/31 03:02:41;;;;;;;6.71;4.28;;;;;;;21.09;50.61;100767.56;457324;116;922521;-81
2022/07/31 03:03:44;;;;;;;7.38;4.72;;;;;;;21.09;50.55;100775.05;457415;116;923503;-80
2022/07/31 03:04:47;;;;;;;9.14;4.63;;;;;;;21.07;50.62;100769.78;457444;114;922481;-81
2022/07/31 03:05:51;;;;;;;6.45;4.27;;;;;;;21.07;50.63;100767.01;457445;116;922575;-80
2022/07/31 03:06:54;;;;;;;7.04;4.25;;;;;;;21.07;50.63;100768.95;450340;117;923113;-81
2022/07/31 03:07:58;;;;;;;7.76;4.64;;;;;;;21.06;50.77;100770.88;450737;116;923219;-81
2022/07/31 03:09:01;;;;;;;7.39;4.72;;;;;;;21.06;50.73;100770.88;457428;116;922454;-82
2022/07/31 03:10:05;;;;;;;5.69;3.82;;;;;;;21.06;50.72;100770.88;450273;116;930440;-80
2022/07/31 03:11:16;;;;;;;6.83;5.08;;;;;;;21.07;50.76;100771.72;451326;116;922888;-81
2022/07/31 03:12:20;;;;;;;5.68;3.96;;;;;;;21.06;50.74;100773.66;457540;115;923174;-80
2022/07/31 03:13:24;;;;;;;5.77;4.52;;;;;;;21.07;50.81;100766.17;457427;115;922455;-81
2022/07/31 03:14:29;;;;;;;6.01;4.32;;;;;;;21.06;50.88;100765.34;457274;114;923030;-81
2022/07/31 03:15:35;;;;;;;7.96;4.64;;;;;;;21.07;50.94;100766.17;449407;117;922786;-80
2022/07/31 03:16:40;;;;;;;7.12;4.84;;;;;;;21.08;50.97;100767.84;449467;117;922552;-80
2022/07/31 03:17:45;;;;;;;7.10;4.45;;;;;;;21.10;50.94;100768.41;449503;117;922670;-80
2022/07/31 03:18:51;;;;;;;5.02;4.24;;;;;;;21.10;50.97;100763.69;449239;117;928042;-81
2022/07/31 03:19:55;;;;;;;6.96;4.59;;;;;;;21.11;51.09;100761.75;449526;116;922602;-79
2022/07/31 03:20:58;;;;;;;6.11;4.36;;;;;;;21.13;51.23;100763.12;449563;118;923091;-81
2022/07/31 03:22:01;;;;;;;6.56;4.23;;;;;;;21.15;51.31;100766.48;449629;118;922862;-81
2022/07/31 03:23:05;;;;;;;5.69;4.11;;;;;;;21.17;51.52;100769.78;449527;118;922559;-81
2022/07/31 03:24:10;;;;;;;9.28;4.64;;;;;;;21.18;51.49;100763.14;449235;117;923045;-81
2022/07/31 03:25:13;;;;;;;6.36;5.19;;;;;;;21.19;51.51;100762.03;449458;118;922553;-80
2022/07/31 03:26:20;;;;;;;9.91;5.00;;;;;;;21.21;51.56;100765.37;449221;117;923913;-82
2022/07/31 03:27:23;;;;;;;7.61;4.83;;;;;;;21.23;51.60;100759.52;442717;119;922663;-81
2022/07/31 03:28:27;;;;;;;9.58;4.53;;;;;;;21.24;51.54;100763.95;442992;118;930617;-81
2022/07/31 03:29:37;;;;;;;6.79;4.46;;;;;;;21.26;51.51;100764.52;450660;115;922614;-80
2022/07/31 03:30:45;;;;;;;5.70;3.89;;;;;;;21.27;51.54;100752.31;457710;115;930631;-82
2022/07/31 03:31:48;;;;;;;5.59;4.05;;;;;;;21.30;51.58;100753.68;450333;117;923122;-80
2022/07/31 03:32:55;;;;;;;5.69;4.66;;;;;;;21.31;51.60;100755.34;450660;116;922651;-80
2022/07/31 03:33:58;;;;;;;6.42;4.47;;;;;;;21.32;51.59;100755.08;460870;113;922909;-81
2022/07/31 03:35:01;;;;;;;15.13;4.74;;;;;;;21.35;51.56;100750.89;466567;113;922581;-81
2022/07/31 03:36:04;;;;;;;5.41;3.91;;;;;;;21.36;51.48;100752.55;466507;113;922585;-81
2022/07/31 03:37:09;;;;;;;8.03;4.09;;;;;;;21.37;51.41;100751.45;466473;113;922862;-81
2022/07/31 03:38:12;;;;;;;4.57;3.30;;;;;;;21.39;51.32;100749.23;466396;113;930544;-81
2022/07/31 03:39:19;;;;;;;5.17;3.33;;;;;;;21.42;51.14;100754.20;463601;113;930494;-82
2022/07/31 03:40:24;;;;;;;4.34;3.56;;;;;;;21.43;50.99;100742.00;466099;113;922806;-82
2022/07/31 03:41:28;;;;;;;7.84;3.25;;;;;;;21.44;50.91;100740.89;466415;113;922571;-82
2022/07/31 03:42:31;;;;;;;3.99;3.12;;;;;;;21.46;50.72;100742.25;466494;113;922957;-81
2022/07/31 03:43:36;;;;;;;4.53;2.96;;;;;;;21.48;50.59;100740.04;466462;113;922518;-80
2022/07/31 03:44:43;;;;;;;4.27;2.90;;;;;;;21.50;50.41;100748.09;464753;113;922581;-80
2022/07/31 03:45:47;;;;;;;6.60;3.56;;;;;;;21.51;50.35;100750.55;466293;113;922559;-80
2022/07/31 03:46:52;;;;;;;6.31;3.63;;;;;;;21.52;50.26;100746.67;466294;113;922520;-81
2022/07/31 03:47:55;;;;;;;6.05;3.62;;;;;;;21.55;50.09;100753.61;466446;113;922486;-80
2022/07/31 03:48:59;;;;;;;6.18;3.52;;;;;;;21.56;50.01;100746.92;466416;113;922565;-80
2022/07/31 03:50:03;;;;;;;6.48;3.81;;;;;;;21.58;50.00;100750.27;466417;113;922679;-80
2022/07/31 03:51:07;;;;;;;5.64;3.85;;;;;;;21.61;49.94;100747.73;457184;116;922708;-81
2022/07/31 03:52:11;;;;;;;5.01;3.59;;;;;;;21.63;49.89;100741.91;457651;113;923186;-81
2022/07/31 03:53:16;;;;;;;7.16;3.35;;;;;;;21.65;49.92;100742.47;466372;113;922514;-82
2022/07/31 03:54:20;;;;;;;5.04;3.27;;;;;;;21.67;49.91;100740.22;457081;116;923026;-82
2022/07/31 03:55:29;;;;;;;6.83;3.12;;;;;;;21.69;49.92;100740.78;457742;113;930523;-82
2022/07/31 03:56:35;;;;;;;5.54;3.37;;;;;;;21.70;49.80;100742.45;466315;113;922594;-81
2022/07/31 03:57:38;;;;;;;4.76;3.32;;;;;;;21.72;49.81;100736.62;462362;113;922497;-80
2022/07/31 03:58:42;;;;;;;4.92;3.14;;;;;;;21.73;49.70;100736.31;447378;118;922632;-81
2022/07/31 03:59:55;;;;;;;4.38;3.28;;;;;;;21.74;49.70;100729.65;451644;114;930632;-80
2022/07/31 04:00:56;;;;;;;6.01;3.26;;;;;;;21.77;49.68;100739.36;446174;118;923139;-81
2022/07/31 04:02:01;;;;;;;5.68;3.59;;;;;;;21.78;49.68;100729.90;446770;116;922976;-80
2022/07/31 04:03:12;;;;;;;4.43;3.27;;;;;;;21.80;49.69;100738.78;454476;116;923160;-82
2022/07/31 04:04:20;;;;;;;5.33;3.17;;;;;;;21.81;49.79;100732.12;454369;114;922848;-81
2022/07/31 04:05:32;;;;;;;3.59;3.17;;;;;;;21.83;49.59;100738.23;454819;116;922736;-81
2022/07/31 04:06:35;;;;;;;6.58;3.36;;;;;;;21.84;49.58;100734.31;455569;116;922996;-80
2022/07/31 04:07:38;;;;;;;6.11;2.80;;;;;;;21.85;49.52;100733.20;455646;116;923080;-80
2022/07/31 04:08:42;;;;;;;5.48;3.36;;;;;;;21.86;49.55;100734.86;455686;116;922610;-80
2022/07/31 04:09:45;;;;;;;4.63;2.73;;;;;;;21.87;49.50;100742.91;455648;116;922808;-80
2022/07/31 04:10:50;;;;;;;5.99;3.47;;;;;;;21.89;49.48;100735.11;446988;118;922922;-80
2022/07/31 04:11:54;;;;;;;6.67;3.39;;;;;;;21.91;49.53;100737.61;455590;116;922520;-79
2022/07/31 04:12:58;;;;;;;3.94;2.19;;;;;;;21.91;49.55;100727.34;455908;116;922653;-79
2022/07/31 04:14:01;;;;;;;3.71;2.14;;;;;;;21.93;49.50;100736.22;455828;116;923044;-79
2022/07/31 04:15:05;;;;;;;4.04;2.20;;;;;;;21.94;49.43;100728.73;456659;116;922619;-80
2022/07/31 04:16:08;;;;;;;3.34;2.34;;;;;;;21.95;49.34;100733.17;457377;116;922536;-81
2022/07/31 04:17:11;;;;;;;3.72;1.92;;;;;;;21.97;49.40;100733.72;457458;116;922633;-80
2022/07/31 04:18:14;;;;;;;2.72;1.79;;;;;;;21.97;49.40;100729.00;457519;116;922726;-82
2022/07/31 04:19:19;;;;;;;1.99;1.39;;;;;;;21.99;49.11;100725.95;457319;116;922557;-81
2022/07/31 04:20:23;;;;;;;2.97;1.64;;;;;;;22.00;49.02;100725.64;457444;116;922556;-80
2022/07/31 04:21:26;;;;;;;2.01;1.46;;;;;;;22.02;49.06;100730.91;457593;116;922812;-82
2022/07/31 04:22:29;;;;;;;4.16;1.35;;;;;;;22.04;48.96;100729.53;457601;116;922863;-82
2022/07/31 04:23:34;;;;;;;1.96;1.26;;;;;;;22.05;48.83;100733.14;457308;116;922693;-80
2022/07/31 04:24:51;;;;;;;2.68;1.43;;;;;;;22.07;48.70;100728.11;457355;116;922472;-81
2022/07/31 04:26:01;;;;;;;1.59;1.29;;;;;;;22.09;48.50;100736.16;456049;116;922546;-81
2022/07/31 04:27:16;;;;;;;2.53;1.18;;;;;;;22.09;48.30;100734.21;457353;116;922679;-81
2022/07/31 04:28:20;;;;;;;4.05;1.27;;;;;;;22.11;48.24;100736.71;457338;116;922641;-82
2022/07/31 04:29:23;;;;;;;2.57;1.49;;;;;;;22.12;47.98;100736.41;457482;116;923048;-82
2022/07/31 04:30:28;;;;;;;2.23;1.28;;;;;;;22.13;47.92;100729.73;453546;115;922844;-81
2022/07/31 04:31:32;;;;;;;3.28;1.52;;;;;;;22.15;47.78;100726.67;457468;116;923050;-81
2022/07/31 04:32:35;;;;;;;1.54;1.18;;;;;;;22.17;47.72;100732.75;457512;116;922849;-82
2022/07/31 04:33:40;;;;;;;4.09;1.45;;;;;;;22.18;47.60;100732.47;456389;116;922893;-82
2022/07/31 04:34:46;;;;;;;1.97;1.49;;;;;;;22.20;47.52;100737.75;449596;117;922672;-82
2022/07/31 04:35:51;;;;;;;1.76;1.36;;;;;;;22.21;47.49;100731.08;449682;118;922536;-82
2022/07/31 04:36:54;;;;;;;3.42;1.35;;;;;;;22.23;47.34;100739.94;449564;118;922656;-81
2022/07/31 04:37:58;;;;;;;5.66;2.08;;;;;;;22.25;47.33;100735.77;449640;118;930301;-82
2022/07/31 04:39:01;;;;;;;2.92;1.26;;;;;;;22.26;47.31;100734.66;449641;118;922638;-81
2022/07/31 04:40:06;;;;;;;4.16;1.36;;;;;;;22.28;47.31;100737.95;449617;118;922998;-82
2022/07/31 04:41:10;;;;;;;2.68;1.43;;;;;;;22.30;47.23;100737.67;449588;118;923232;-82
2022/07/31 04:42:14;;;;;;;4.11;1.74;;;;;;;22.34;46.71;100733.19;449732;118;923136;-82
2022/07/31 04:43:17;;;;;;;4.35;1.64;;;;;;;22.34;46.71;100733.19;449699;118;922578;-82
2022/07/31 04:44:22;;;;;;;2.02;1.48;;;;;;;22.36;46.90;100730.97;449608;118;922537;-81
2022/07/31 04:45:30;;;;;;;3.54;1.58;;;;;;;22.38;46.90;100737.08;449517;118;922553;-81
2022/07/31 04:46:34;;;;;;;4.94;2.01;;;;;;;22.40;46.90;100730.09;449568;118;922763;-81
2022/07/31 04:47:37;;;;;;;3.44;1.62;;;;;;;22.43;47.13;100726.75;449701;118;922525;-81
2022/07/31 04:48:40;;;;;;;6.16;1.84;;;;;;;22.43;47.13;100726.75;449637;118;922926;-82
2022/07/31 04:49:45;;;;;;;3.78;2.05;;;;;;;22.45;46.80;100726.44;449468;118;923067;-81
2022/07/31 04:50:50;;;;;;;4.68;2.84;;;;;;;22.49;46.83;100723.93;449463;117;922709;-81
2022/07/31 04:51:53;;;;;;;4.06;2.14;;;;;;;22.49;46.75;100733.09;449705;118;923222;-80
2022/07/31 04:52:57;;;;;;;3.64;1.86;;;;;;;22.51;46.77;100719.72;449646;118;922591;-81
2022/07/31 04:54:01;;;;;;;7.64;2.05;;;;;;;22.54;46.79;100723.89;442663;118;922630;-82
2022/07/31 04:55:05;;;;;;;4.69;2.06;;;;;;;22.55;46.79;100726.35;448879;118;930522;-80
2022/07/31 04:57:30;;;;;;;5.33;2.66;;;;;;;22.58;46.65;100725.78;449495;118;922949;-82
2022/07/31 04:58:34;;;;;;;3.86;2.74;;;;;;;22.60;46.59;100722.73;449701;118;922632;-82
2022/07/31 04:59:37;;;;;;;4.39;2.58;;;;;;;22.60;46.59;100723.55;452127;116;922761;-81
2022/07/31 05:00:42;;;;;;;7.49;2.85;;;;;;;22.62;46.63;100726.86;446475;118;930458;-81
2022/07/31 05:01:46;;;;;;;4.27;2.53;;;;;;;22.63;46.72;100722.96;453964;117;922578;-82
2022/07/31 05:02:51;;;;;;;4.42;2.57;;;;;;;22.65;46.72;100725.45;453747;117;922862;-81